Time;durP1;ratioP1;P1;durP2;ratioP2;P2;SDS_P1;SDS_P2;PMS_P1;PMS_P2;Temp;Humidity;BMP_temperature;BMP_pressure;BME280_temperature;BME280_humidity;BME280_pressure;Samples;Min_cycle;Max_cycle;Signal;HPM_P1;HPM_P2
2021/07/16 00:00:41;;;;;;;3.70;3.00;;;;;;;;;;5012438;28;20033;-57
2021/07/16 00:03:07;;;;;;;3.40;2.58;;;;;;;;;;5012364;28;20420;-57
2021/07/16 00:05:33;;;;;;;3.05;2.65;;;;;;;;;;5012272;28;20026;-57
2021/07/16 00:07:59;;;;;;;4.60;3.10;;;;;;;;;;5012085;28;20042;-56
2021/07/16 00:10:25;;;;;;;4.50;2.85;;;;;;;;;;5012380;28;20111;-56
2021/07/16 00:12:51;;;;;;;4.43;2.60;;;;;;;;;;5012277;28;20026;-56
2021/07/16 00:15:19;;;;;;;2.90;2.50;;;21.50;91.20;;;;;;5012488;28;20036;-57
2021/07/16 00:17:46;;;;;;;3.22;2.45;;;21.50;89.70;;;;;;5012291;28;20026;-55
2021/07/16 00:20:13;;;;;;;3.10;2.65;;;21.60;90.90;;;;;;5012445;28;20406;-56
2021/07/16 00:22:39;;;;;;;4.10;3.28;;;;;;;;;;5013482;28;20018;-56
2021/07/16 00:25:06;;;;;;;2.75;2.47;;;;;;;;;;5016033;28;20044;-56
2021/07/16 00:27:32;;;;;;;4.55;2.83;;;;;;;;;;5015911;28;20049;-56
2021/07/16 00:29:58;;;;;;;3.75;3.10;;;;;;;;;;5015977;28;20045;-57
2021/07/16 00:32:24;;;;;;;5.68;3.25;;;;;;;;;;5015900;28;20497;-57
2021/07/16 00:34:50;;;;;;;4.75;2.90;;;;;;;;;;5015847;28;20022;-56
2021/07/16 00:37:16;;;;;;;2.60;2.40;;;;;;;;;;5015823;28;20026;-55
2021/07/16 00:39:42;;;;;;;6.22;2.88;;;;;;;;;;5015768;28;20032;-57
2021/07/16 00:42:08;;;;;;;3.90;2.60;;;;;;;;;;5015724;28;20037;-57
2021/07/16 00:44:36;;;;;;;3.65;2.97;;;21.40;91.40;;;;;;5015733;28;20030;-57
2021/07/16 00:47:02;;;;;;;3.17;2.90;;;;;;;;;;5015635;28;20088;-57
2021/07/16 00:49:28;;;;;;;4.03;2.80;;;;;;;;;;5015644;28;20030;-56
2021/07/16 00:51:54;;;;;;;3.35;3.00;;;21.40;90.50;;;;;;5015627;28;20037;-57
2021/07/16 00:54:20;;;;;;;4.13;3.00;;;;;;;;;;5015543;28;20470;-56
2021/07/16 00:56:46;;;;;;;5.70;3.17;;;;;;;;;;5015503;28;20034;-55
2021/07/16 00:59:14;;;;;;;3.78;2.58;;;;;;;;;;5015440;28;20482;-57
2021/07/16 01:01:42;;;;;;;3.53;2.88;;;21.50;91.50;;;;;;5015400;28;20654;-57
2021/07/16 01:04:08;;;;;;;4.30;2.63;;;;;;;;;;5015357;28;20105;-57
2021/07/16 01:06:34;;;;;;;3.05;2.75;;;;;;;;;;5015240;28;20488;-56
2021/07/16 01:09:01;;;;;;;3.90;2.90;;;;;;;;;;5015041;28;20081;-54
2021/07/16 01:11:26;;;;;;;3.13;2.83;;;;;;;;;;5015166;28;20100;-56
2021/07/16 01:13:53;;;;;;;2.85;2.33;;;21.40;91.90;;;;;;5015160;28;20029;-57
2021/07/16 01:16:19;;;;;;;4.72;2.63;;;;;;;;;;5015075;28;20030;-57
2021/07/16 01:18:45;;;;;;;3.40;2.90;;;;;;;;;;5015094;28;20398;-57
2021/07/16 01:21:13;;;;;;;3.88;3.13;;;21.40;92.10;;;;;;5015029;28;20025;-57
2021/07/16 01:23:39;;;;;;;2.90;2.53;;;;;;;;;;5015032;28;20033;-55
2021/07/16 01:26:06;;;;;;;2.58;2.38;;;21.30;92.20;;;;;;4997303;28;20218;-57
2021/07/16 01:28:32;;;;;;;4.78;2.75;;;;;;;;;;5014904;28;20053;-57
2021/07/16 01:30:58;;;;;;;3.50;3.20;;;;;;;;;;5014879;28;20026;-56
2021/07/16 01:33:24;;;;;;;3.00;2.80;;;;;;;;;;5014770;28;20474;-54
2021/07/16 01:35:50;;;;;;;2.95;2.75;;;;;;;;;;5014767;28;20473;-56
2021/07/16 01:38:16;;;;;;;3.83;3.08;;;;;;;;;;5014743;28;20041;-56
2021/07/16 01:40:42;;;;;;;3.72;3.35;;;;;;;;;;5014780;28;20018;-56
2021/07/16 01:43:10;;;;;;;3.85;2.78;;;21.50;92.10;;;;;;5014680;28;20037;-56
2021/07/16 01:45:38;;;;;;;4.13;2.80;;;21.50;92.00;;;;;;5014534;28;20448;-56
2021/07/16 01:48:10;;;;;;;3.63;2.78;;;21.40;92.00;;;;;;5014607;28;20505;-56
2021/07/16 01:50:37;;;;;;;2.80;2.58;;;21.40;91.20;;;;;;5014563;28;20394;-56
2021/07/16 01:53:04;;;;;;;3.08;2.70;;;21.40;92.30;;;;;;5014714;28;20033;-57
2021/07/16 01:55:32;;;;;;;3.63;2.58;;;21.30;92.30;;;;;;5014367;28;20030;-57
2021/07/16 01:57:59;;;;;;;2.70;2.50;;;21.30;92.20;;;;;;5014325;28;20026;-54
2021/07/16 02:00:29;;;;;;;4.65;3.15;;;21.30;84.00;;;;;;5014364;28;20032;-56
2021/07/16 02:02:57;;;;;;;3.22;2.58;;;21.40;86.80;;;;;;5014312;28;20053;-57
2021/07/16 02:05:23;;;;;;;3.15;2.80;;;;;;;;;;5014224;28;20072;-56
2021/07/16 02:08:06;;;;;;;5.35;2.65;;;21.30;91.90;;;;;;5013907;28;20046;-57
2021/07/16 02:10:32;;;;;;;2.67;2.47;;;;;;;;;;5014189;28;20018;-56
2021/07/16 02:12:59;;;;;;;3.72;2.47;;;21.30;91.70;;;;;;5014035;28;20109;-56
2021/07/16 02:15:27;;;;;;;4.03;3.17;;;21.20;92.10;;;;;;5014091;28;20090;-54
2021/07/16 02:17:53;;;;;;;4.18;2.78;;;;;;;;;;4996429;28;20026;-56
2021/07/16 02:20:19;;;;;;;5.38;2.90;;;;;;;;;;5013956;28;20026;-56
2021/07/16 02:22:45;;;;;;;5.28;2.97;;;;;;;;;;5013845;28;20025;-56
2021/07/16 02:25:12;;;;;;;5.13;3.30;;;21.30;91.80;;;;;;5013800;28;20026;-56
2021/07/16 02:27:38;;;;;;;3.25;2.95;;;;;;;;;;5013712;28;20057;-56
2021/07/16 02:30:06;;;;;;;3.38;2.95;;;21.20;91.90;;;;;;5013778;28;20466;-56
2021/07/16 02:32:32;;;;;;;3.63;3.33;;;;;;;;;;5013604;28;20117;-56
2021/07/16 02:34:58;;;;;;;3.88;2.95;;;;;;;;;;5013606;28;20104;-56
2021/07/16 02:37:24;;;;;;;4.80;3.00;;;;;;;;;;5013547;28;20165;-55
2021/07/16 02:39:50;;;;;;;5.70;2.90;;;;;;;;;;5013494;28;20033;-56
2021/07/16 02:42:16;;;;;;;4.38;3.10;;;;;;;;;;5013531;28;20022;-56
2021/07/16 02:44:42;;;;;;;4.30;3.03;;;;;;;;;;5013313;28;20026;-56
2021/07/16 02:47:08;;;;;;;3.13;2.65;;;;;;;;;;5012991;28;20038;-56
2021/07/16 02:49:34;;;;;;;3.65;2.88;;;;;;;;;;5013422;28;20508;-56
2021/07/16 02:52:00;;;;;;;4.35;3.28;;;;;;;;;;5013349;28;20022;-57
2021/07/16 02:54:26;;;;;;;4.70;3.30;;;;;;;;;;5013577;28;20040;-56
2021/07/16 02:56:52;;;;;;;3.75;3.38;;;;;;;;;;5013247;28;20053;-55
2021/07/16 02:59:18;;;;;;;5.63;3.22;;;;;;;;;;5013289;28;20033;-56
2021/07/16 03:01:57;;;;;;;3.75;2.85;;;21.20;88.30;;;;;;5013149;28;20040;-57
2021/07/16 03:04:23;;;;;;;7.07;3.05;;;;;;;;;;5013174;28;20018;-55
2021/07/16 03:06:50;;;;;;;4.43;3.25;;;21.20;91.60;;;;;;5012983;28;20065;-56
2021/07/16 03:09:16;;;;;;;5.80;3.25;;;;;;;;;;5012988;28;20045;-56
2021/07/16 03:11:42;;;;;;;4.82;2.92;;;;;;;;;;5012975;28;20049;-54
2021/07/16 03:14:08;;;;;;;5.05;3.28;;;;;;;;;;5013035;28;20022;-55
2021/07/16 03:16:34;;;;;;;5.93;3.17;;;;;;;;;;5012938;28;20064;-56
2021/07/16 03:19:01;;;;;;;4.22;2.92;;;21.00;91.90;;;;;;5012841;28;20021;-56
2021/07/16 03:21:27;;;;;;;4.35;2.83;;;;;;;;;;5012929;28;20021;-56
2021/07/16 03:23:53;;;;;;;4.93;3.28;;;;;;;;;;5012832;28;20098;-56
2021/07/16 03:26:19;;;;;;;5.40;3.50;;;;;;;;;;5012697;28;20120;-55
2021/07/16 03:28:45;;;;;;;3.53;3.10;;;;;;;;;;5012831;28;20028;-55
2021/07/16 03:31:11;;;;;;;3.92;2.97;;;;;;;;;;5013073;28;20030;-57
2021/07/16 03:33:37;;;;;;;5.13;3.00;;;;;;;;;;5012776;28;20033;-56
2021/07/16 03:36:04;;;;;;;3.00;2.70;;;;;;;;;;5012942;28;20113;-56
2021/07/16 03:38:30;;;;;;;3.42;2.78;;;;;;;;;;5012745;28;20080;-57
2021/07/16 03:40:59;;;;;;;4.15;3.28;;;;;;;;;;5012617;28;20474;-55
2021/07/16 03:43:25;;;;;;;5.35;3.05;;;;;;;;;;5012855;28;20034;-57
2021/07/16 03:45:54;;;;;;;4.45;2.97;;;21.20;87.60;;;;;;5012478;28;20082;-56
2021/07/16 03:48:20;;;;;;;3.53;3.00;;;;;;;;;;5012584;28;20382;-55
2021/07/16 03:50:49;;;;;;;4.80;2.78;;;;;;;;;;5012517;28;20030;-56
2021/07/16 03:53:15;;;;;;;6.07;2.53;;;;;;;;;;5012531;28;20070;-57
2021/07/16 03:55:41;;;;;;;3.88;2.60;;;21.00;91.60;;;;;;5012497;28;20026;-56
2021/07/16 03:58:08;;;;;;;3.58;2.78;;;;;;;;;;5014260;28;20025;-57
2021/07/16 04:00:34;;;;;;;3.65;3.17;;;;;;;;;;5016471;28;20041;-57
2021/07/16 04:03:01;;;;;;;3.70;2.50;;;20.90;91.70;;;;;;5016438;28;20026;-55
2021/07/16 04:05:29;;;;;;;4.63;2.97;;;;;;;;;;5016442;28;20018;-56
2021/07/16 04:08:03;;;;;;;3.33;2.55;;;;;;;;;;5016068;28;20041;-56
2021/07/16 04:10:29;;;;;;;4.72;3.40;;;21.20;90.20;;;;;;5016354;28;20180;-57
2021/07/16 04:13:07;;;;;;;3.85;2.75;;;21.10;87.50;;;;;;5016269;28;20030;-56
2021/07/16 04:15:33;;;;;;;3.50;2.72;;;21.50;91.00;;;;;;5016273;28;20472;-56
2021/07/16 04:18:01;;;;;;;4.68;2.90;;;21.10;91.60;;;;;;5016182;28;20026;-57
2021/07/16 04:20:28;;;;;;;5.70;3.20;;;21.10;91.60;;;;;;5016429;28;20030;-56
2021/07/16 04:22:55;;;;;;;5.65;2.67;;;21.10;91.70;;;;;;5016015;28;20117;-56
2021/07/16 04:25:21;;;;;;;3.65;2.25;;;;;;;;;;5016357;28;20386;-54
2021/07/16 04:27:49;;;;;;;3.67;2.75;;;21.20;91.60;;;;;;5015981;28;20120;-56
2021/07/16 04:30:16;;;;;;;6.60;2.47;;;21.10;90.00;;;;;;5015831;28;20032;-56
2021/07/16 04:32:42;;;;;;;3.60;2.80;;;;;;;;;;5015888;28;20477;-57
2021/07/16 04:35:09;;;;;;;5.43;2.78;;;21.10;91.80;;;;;;5015858;28;20045;-56
2021/07/16 04:37:35;;;;;;;5.45;2.85;;;21.10;90.10;;;;;;5016092;28;20018;-56
2021/07/16 04:40:03;;;;;;;4.35;2.80;;;21.20;91.70;;;;;;5015771;28;20411;-56
2021/07/16 04:42:29;;;;;;;3.67;2.55;;;;;;;;;;5015702;28;20030;-54
2021/07/16 04:44:55;;;;;;;4.63;3.00;;;;;;;;;;5015735;28;20168;-56
2021/07/16 04:47:21;;;;;;;3.85;2.80;;;;;;;;;;5015558;28;20038;-55
2021/07/16 04:49:47;;;;;;;4.03;2.75;;;;;;;;;;5015856;28;20053;-56
2021/07/16 04:52:13;;;;;;;3.65;2.47;;;;;;;;;;5015555;28;20489;-56
2021/07/16 04:54:39;;;;;;;4.50;2.67;;;;;;;;;;5015529;28;20022;-56
2021/07/16 04:57:08;;;;;;;3.55;2.60;;;21.10;91.40;;;;;;5015441;28;20038;-54
2021/07/16 04:59:34;;;;;;;4.13;2.67;;;;;;;;;;5015562;28;20061;-56
2021/07/16 05:02:00;;;;;;;3.10;2.10;;;;;;;;;;5015405;28;20033;-57
2021/07/16 05:04:26;;;;;;;5.03;2.60;;;;;;;;;;5015316;28;20084;-56
2021/07/16 05:06:52;;;;;;;4.30;2.63;;;;;;;;;;5015251;28;20040;-57
2021/07/16 05:09:18;;;;;;;3.10;2.53;;;;;;;;;;5014674;28;20034;-57
2021/07/16 05:11:45;;;;;;;3.35;2.40;;;;;;;;;;5015223;28;20026;-57
2021/07/16 05:14:11;;;;;;;6.82;2.60;;;;;;;;;;5015144;28;20028;-56
2021/07/16 05:16:37;;;;;;;5.93;2.80;;;21.10;91.40;;;;;;5015103;28;20057;-55
2021/07/16 05:19:04;;;;;;;3.17;2.30;;;;;;;;;;5015089;28;20018;-56
2021/07/16 05:21:32;;;;;;;3.95;2.20;;;;;;;;;;5014951;28;20033;-56
2021/07/16 05:23:57;;;;;;;2.83;2.20;;;;;;;;;;5015016;28;20492;-56
2021/07/16 05:26:23;;;;;;;3.05;2.20;;;;;;;;;;5014815;28;20034;-55
2021/07/16 05:28:49;;;;;;;3.97;2.42;;;;;;;;;;5014863;28;20037;-48
2021/07/16 05:31:17;;;;;;;2.90;2.58;;;20.80;91.30;;;;;;5014799;28;20026;-52
2021/07/16 05:33:43;;;;;;;5.32;2.55;;;;;;;;;;5014744;28;20029;-51
2021/07/16 05:36:09;;;;;;;3.67;2.08;;;;;;;;;;5014932;28;20540;-50
2021/07/16 05:38:37;;;;;;;3.72;2.17;;;;;;;;;;5014686;28;20429;-51
2021/07/16 05:41:03;;;;;;;3.70;2.35;;;;;;;;;;5014670;28;20022;-53
2021/07/16 05:43:29;;;;;;;5.43;2.90;;;;;;;;;;5014545;28;20033;-51
2021/07/16 05:45:55;;;;;;;2.90;2.17;;;;;;;;;;5014460;28;20050;-52
2021/07/16 05:48:21;;;;;;;3.90;2.38;;;;;;;;;;5014734;28;20073;-49
2021/07/16 05:50:48;;;;;;;3.97;2.50;;;;;;;;;;5014735;28;20030;-51
2021/07/16 05:53:15;;;;;;;2.28;2.03;;;21.20;90.00;;;;;;5014551;28;20374;-52
2021/07/16 05:55:41;;;;;;;7.15;3.15;;;;;;;;;;5014490;28;20050;-50
2021/07/16 05:58:07;;;;;;;3.88;2.30;;;;;;;;;;5014551;28;20061;-54
2021/07/16 06:00:34;;;;;;;4.85;2.80;;;21.20;90.80;;;;;;5014408;28;20100;-55
2021/07/16 06:03:00;;;;;;;4.43;2.40;;;;;;;;;;5014418;28;20026;-55
2021/07/16 06:05:26;;;;;;;7.05;2.55;;;;;;;;;;4996701;28;20030;-55
2021/07/16 06:07:53;;;;;;;4.63;2.20;;;;;;;;;;5014013;28;20037;-54
2021/07/16 06:10:19;;;;;;;3.65;2.10;;;;;;;;;;5014190;28;20037;-54
2021/07/16 06:12:45;;;;;;;5.07;2.83;;;;;;;;;;5013548;28;20021;-55
2021/07/16 06:15:12;;;;;;;8.18;2.33;;;21.00;91.20;;;;;;5014031;28;20022;-53
2021/07/16 06:17:38;;;;;;;4.53;2.25;;;;;;;;;;5014070;28;20022;-53
2021/07/16 06:20:06;;;;;;;6.45;2.35;;;21.10;91.00;;;;;;5013206;28;20026;-55
2021/07/16 06:22:32;;;;;;;6.55;2.55;;;;;;;;;;5013838;28;20508;-55
2021/07/16 06:24:58;;;;;;;5.25;2.20;;;;;;;;;;5014023;28;20470;-55
2021/07/16 06:27:25;;;;;;;4.07;2.15;;;;;;;;;;5013862;28;20034;-54
2021/07/16 06:29:51;;;;;;;6.47;2.75;;;;;;;;;;5013916;28;20462;-53
2021/07/16 06:32:18;;;;;;;3.13;2.13;;;;;;;;;;5014144;28;20026;-55
2021/07/16 06:34:44;;;;;;;11.05;2.50;;;;;;;;;;5013733;28;20026;-55
2021/07/16 06:37:09;;;;;;;4.10;2.30;;;;;;;;;;5013755;28;20029;-53
2021/07/16 06:39:35;;;;;;;6.68;2.72;;;;;;;;;;5013668;28;20470;-54
2021/07/16 06:42:01;;;;;;;6.47;2.70;;;;;;;;;;5013941;28;20030;-55
2021/07/16 06:44:28;;;;;;;8.10;2.70;;;;;;;;;;5013609;28;20022;-53
2021/07/16 06:46:54;;;;;;;5.72;2.40;;;;;;;;;;5013423;28;20116;-55
2021/07/16 06:49:26;;;;;;;7.72;2.55;;;;;;;;;;5013480;28;20151;-53
2021/07/16 06:51:52;;;;;;;7.18;2.97;;;;;;;;;;5013703;28;20033;-53
2021/07/16 06:54:18;;;;;;;6.22;2.22;;;;;;;;;;5013437;28;20026;-55
2021/07/16 07:00:24;;;;;;;5.32;2.42;;;21.20;86.90;;;;;;5013622;28;20064;-55
2021/07/16 07:02:50;;;;;;;5.55;2.10;;;;;;;;;;5013278;28;20029;-55
2021/07/16 07:05:15;;;;;;;7.50;2.88;;;;;;;;;;5013293;28;20025;-56
2021/07/16 07:07:43;;;;;;;4.43;2.40;;;;;;;;;;5013185;28;20140;-55
2021/07/16 07:10:10;;;;;;;5.88;2.47;;;;;;;;;;4995581;28;20458;-52
2021/07/16 07:12:38;;;;;;;6.10;2.38;;;21.10;90.00;;;;;;5013236;28;20026;-55
2021/07/16 07:15:04;;;;;;;6.45;2.25;;;;;;;;;;5013403;28;20029;-55
2021/07/16 07:17:31;;;;;;;6.15;2.63;;;;;;;;;;5013045;28;20053;-56
2021/07/16 07:19:57;;;;;;;7.35;2.92;;;;;;;;;;5012939;28;20390;-55
2021/07/16 07:22:23;;;;;;;5.70;2.22;;;;;;;;;;5012914;28;20033;-54
2021/07/16 07:24:49;;;;;;;6.38;2.35;;;;;;;;;;5012907;28;20448;-54
2021/07/16 07:27:15;;;;;;;7.47;2.60;;;;;;;;;;5012883;28;20037;-55
2021/07/16 07:29:41;;;;;;;5.85;2.33;;;;;;;;;;5013107;28;20049;-51
2021/07/16 07:32:07;;;;;;;5.97;2.40;;;;;;;;;;5012680;28;20088;-50
2021/07/16 07:34:33;;;;;;;6.22;2.80;;;;;;;;;;5012794;28;20026;-54
2021/07/16 07:36:59;;;;;;;7.10;2.58;;;;;;;;;;5012744;28;20025;-51
2021/07/16 07:39:25;;;;;;;4.60;2.35;;;;;;;;;;5012731;28;20034;-53
2021/07/16 07:41:51;;;;;;;10.07;2.85;;;;;;;;;;5012846;28;20033;-53
2021/07/16 07:44:17;;;;;;;11.18;2.83;;;;;;;;;;5012653;28;20030;-54
2021/07/16 07:46:44;;;;;;;5.78;2.28;;;21.10;90.20;;;;;;5012815;28;20382;-54
2021/07/16 07:49:11;;;;;;;5.72;2.47;;;;;;;;;;5012540;28;20026;-53
2021/07/16 07:51:38;;;;;;;6.15;2.67;;;21.10;91.10;;;;;;5012672;28;20018;-53
2021/07/16 07:54:04;;;;;;;7.88;2.42;;;;;;;;;;5012599;28;20073;-53
2021/07/16 07:56:31;;;;;;;10.75;2.67;;;20.90;91.30;;;;;;5012549;28;20087;-54
2021/07/16 07:58:57;;;;;;;6.00;2.50;;;;;;;;;;5012509;28;20014;-52
2021/07/16 08:01:24;;;;;;;4.85;2.13;;;;;;;;;;5012750;28;20393;-54
2021/07/16 08:03:50;;;;;;;8.15;2.97;;;;;;;;;;5012466;28;20025;-54
2021/07/16 08:06:16;;;;;;;5.32;2.28;;;;;;;;;;5012387;28;20033;-54
2021/07/16 08:08:42;;;;;;;4.80;2.30;;;;;;;;;;5012256;28;20156;-55
2021/07/16 08:11:08;;;;;;;5.88;2.53;;;;;;;;;;5012387;28;20081;-54
2021/07/16 08:13:34;;;;;;;7.57;2.40;;;;;;;;;;5012440;28;20026;-52
2021/07/16 08:16:01;;;;;;;6.57;2.00;;;;;;;;;;5012321;28;20088;-54
2021/07/16 08:18:27;;;;;;;7.97;2.88;;;;;;;;;;5012437;28;20149;-52
2021/07/16 08:20:53;;;;;;;6.82;2.40;;;;;;;;;;5012361;28;20029;-54
2021/07/16 08:23:19;;;;;;;5.32;2.30;;;;;;;;;;5012282;28;20156;-53
2021/07/16 08:25:45;;;;;;;6.07;2.35;;;;;;;;;;5012260;28;20069;-54
2021/07/16 08:28:11;;;;;;;7.15;2.50;;;;;;;;;;5012177;28;20184;-53
2021/07/16 08:30:37;;;;;;;5.18;2.35;;;;;;;;;;5012265;28;20022;-55
2021/07/16 08:33:04;;;;;;;7.15;2.38;;;;;;;;;;5012458;28;20117;-54
2021/07/16 08:35:30;;;;;;;4.75;2.17;;;;;;;;;;5012552;28;20030;-50
2021/07/16 08:37:56;;;;;;;4.53;2.35;;;;;;;;;;4994583;28;20030;-52
2021/07/16 08:40:22;;;;;;;6.75;2.33;;;;;;;;;;5012419;28;20030;-52
2021/07/16 08:42:48;;;;;;;10.35;2.40;;;;;;;;;;5012461;28;20125;-52
2021/07/16 08:45:15;;;;;;;5.95;2.00;;;21.20;90.80;;;;;;5015550;28;20037;-54
2021/07/16 08:47:41;;;;;;;3.58;1.88;;;;;;;;;;5015759;28;20391;-52
2021/07/16 08:50:10;;;;;;;8.63;1.85;;;21.60;91.20;;;;;;5015988;28;20439;-55
2021/07/16 08:52:38;;;;;;;6.85;2.08;;;21.40;91.00;;;;;;5015834;28;20026;-52
2021/07/16 08:55:04;;;;;;;5.07;2.10;;;;;;;;;;5015665;28;20090;-54
2021/07/16 08:57:31;;;;;;;7.32;2.25;;;;;;;;;;4998012;28;20553;-54
2021/07/16 08:59:59;;;;;;;6.43;2.38;;;21.50;87.10;;;;;;5012610;28;20072;-51
2021/07/16 09:02:28;;;;;;;6.32;1.80;;;21.60;88.70;;;;;;5012236;28;20029;-54
2021/07/16 09:05:03;;;;;;;4.07;2.13;;;21.60;85.30;;;;;;5012639;28;20030;-54
2021/07/16 09:07:29;;;;;;;7.45;2.38;;;;;;;;;;5012144;28;20041;-53
2021/07/16 09:10:06;;;;;;;5.47;2.50;;;21.90;85.20;;;;;;5012384;28;20168;-55
2021/07/16 09:12:36;;;;;;;6.90;1.98;;;21.80;84.90;;;;;;5014496;28;20385;-54
2021/07/16 09:15:12;;;;;;;;;;;21.60;90.60;;;;;;5015270;28;20022;-53
2021/07/16 09:17:43;;;;;;;4.70;1.73;;;;;;;;;;5015321;28;20039;-54
2021/07/16 09:20:09;;;;;;;;;;;21.90;90.50;;;;;;5015741;28;20117;-55
2021/07/16 09:22:36;;;;;;;5.75;2.13;;;;;;;;;;5015271;28;19905;-55
2021/07/16 09:25:05;;;;;;;3.88;1.80;;;21.90;90.10;;;;;;5015369;28;20112;-54
2021/07/16 09:27:31;;;;;;;3.28;1.75;;;;;;;;;;5015223;28;20040;-55
2021/07/16 09:30:20;;;;;;;5.15;2.20;;;22.30;89.30;;;;;;5015103;28;20378;-55
2021/07/16 09:32:53;;;;;;;2.78;1.45;;;22.20;83.40;;;;;;4997386;28;20033;-53
2021/07/16 09:35:24;;;;;;;4.53;1.85;;;22.30;89.70;;;;;;5015156;28;20428;-52
2021/07/16 09:37:59;;;;;;;8.43;2.20;;;22.20;84.00;;;;;;5014923;28;20049;-54
2021/07/16 09:40:35;;;;;;;3.60;1.70;;;22.20;83.70;;;;;;5014933;28;20097;-54
2021/07/16 09:43:16;;;;;;;5.70;2.03;;;22.60;83.60;;;;;;5014907;28;20026;-55
2021/07/16 09:46:00;;;;;;;5.95;2.38;;;22.50;89.70;;;;;;5015042;28;20390;-55
2021/07/16 10:05:16;;;;;;;5.80;1.98;;;;;;;;;;5014158;28;20037;-52
2021/07/16 10:07:43;;;;;;;7.60;2.28;;;22.60;89.40;;;;;;5013805;28;20044;-53
2021/07/16 10:10:14;;;;;;;3.03;1.50;;;22.60;83.70;;;;;;5014138;28;20037;-55
2021/07/16 10:12:41;;;;;;;4.05;1.70;;;22.70;89.60;;;;;;5014045;28;20036;-55
2021/07/16 10:15:10;;;;;;;3.95;1.52;;;22.70;89.90;;;;;;5014046;28;20046;-52
2021/07/16 10:17:36;;;;;;;3.92;1.83;;;;;;;;;;5014063;28;20014;-52
2021/07/16 10:20:06;;;;;;;2.70;1.50;;;23.20;88.80;;;;;;5014130;28;20390;-53
2021/07/16 10:22:33;;;;;;;3.95;1.80;;;22.80;89.00;;;;;;5013962;28;20056;-54
2021/07/16 10:24:59;;;;;;;4.28;1.73;;;;;;;;;;5013980;28;20026;-52
2021/07/16 10:27:25;;;;;;;5.28;1.73;;;;;;;;;;5013826;28;20466;-52
2021/07/16 10:30:11;;;;;;;10.20;2.17;;;23.20;89.80;;;;;;5013886;28;20045;-55
2021/07/16 10:32:46;;;;;;;4.05;1.75;;;22.80;82.20;;;;;;5013740;28;20052;-54
2021/07/16 10:35:18;;;;;;;3.58;1.90;;;22.90;82.40;;;;;;5013839;28;20029;-55
2021/07/16 10:37:45;;;;;;;5.07;1.80;;;22.80;88.10;;;;;;5013798;28;20030;-55
2021/07/16 10:40:30;;;;;;;6.65;2.00;;;22.80;88.00;;;;;;5013764;28;20342;-55
2021/07/16 10:42:56;;;;;;;3.80;1.90;;;;;;;;;;5013569;28;20036;-55
2021/07/16 10:45:39;;;;;;;6.78;2.50;;;22.80;81.50;;;;;;5013679;28;20121;-55
2021/07/16 10:48:19;;;;;;;7.78;2.83;;;22.70;79.50;;;;;;5013845;28;20370;-56
2021/07/16 10:50:51;;;;;;;6.47;2.55;;;22.70;79.70;;;;;;5013528;28;20108;-56
2021/07/16 10:53:28;;;;;;;5.10;2.28;;;22.80;79.50;;;;;;5013487;28;20030;-54
2021/07/16 10:55:57;;;;;;;5.10;2.42;;;22.80;80.00;;;;;;5013429;28;20068;-52
2021/07/16 10:58:27;;;;;;;6.82;2.53;;;22.70;86.10;;;;;;5013451;28;20061;-54
2021/07/16 11:01:02;;;;;;;5.03;2.40;;;22.70;80.40;;;;;;5013420;28;20034;-54
2021/07/16 11:03:47;;;;;;;5.75;2.15;;;22.60;79.60;;;;;;5013424;28;20021;-50
2021/07/16 11:06:14;;;;;;;6.32;2.17;;;22.70;86.30;;;;;;5013378;28;20041;-54
2021/07/16 11:08:40;;;;;;;5.70;2.38;;;;;;;;;;5013052;28;20038;-55
2021/07/16 11:11:09;;;;;;;6.90;2.58;;;22.70;88.80;;;;;;5013185;28;20025;-56
2021/07/16 11:13:53;;;;;;;7.70;2.70;;;22.70;83.10;;;;;;5013285;28;20030;-54
2021/07/16 11:16:19;;;;;;;5.00;2.42;;;;;;;;;;5013252;28;20379;-56
2021/07/16 11:19:18;;;;;;;5.63;2.47;;;22.70;83.10;;;;;;5013149;28;20084;-56
2021/07/16 11:21:48;;;;;;;8.13;2.67;;;;;;;;;;4969980;28;20431;-56
2021/07/16 11:24:16;;;;;;;6.53;2.78;;;22.50;82.00;;;;;;5012857;28;20553;-56
2021/07/16 11:26:53;;;;;;;6.78;2.50;;;22.60;82.60;;;;;;5012915;28;20450;-55
2021/07/16 11:29:20;;;;;;;6.85;3.38;;;22.60;88.10;;;;;;5012814;28;20033;-56
2021/07/16 11:31:46;;;;;;;11.98;3.22;;;;;;;;;;5012739;28;20033;-56
2021/07/16 11:34:16;;;;;;;10.18;2.67;;;22.40;88.60;;;;;;5012441;28;20466;-56
2021/07/16 11:36:54;;;;;;;6.95;2.72;;;22.60;82.60;;;;;;5010919;28;20064;-56
2021/07/16 11:39:31;;;;;;;8.48;3.10;;;22.50;82.60;;;;;;5011748;28;20026;-56
2021/07/16 11:41:57;;;;;;;7.28;2.83;;;;;;;;;;5011489;28;20026;-55
2021/07/16 11:44:31;;;;;;;9.27;2.88;;;22.60;83.10;;;;;;5010870;28;20026;-56
2021/07/16 11:46:58;;;;;;;6.93;3.10;;;22.60;89.40;;;;;;5012257;28;20037;-57
2021/07/16 11:49:26;;;;;;;4.68;2.17;;;22.70;89.60;;;;;;5012757;28;20033;-56
2021/07/16 11:52:02;;;;;;;7.18;2.63;;;22.60;83.60;;;;;;5012596;28;20021;-56
2021/07/16 11:54:30;;;;;;;8.13;3.03;;;22.80;89.60;;;;;;5012744;28;20022;-57
2021/07/16 11:57:00;;;;;;;8.38;2.80;;;22.70;83.20;;;;;;5012237;28;20041;-57
2021/07/16 11:59:27;;;;;;;10.02;3.15;;;22.90;89.30;;;;;;5012501;28;20025;-57
2021/07/16 12:02:09;;;;;;;10.98;2.90;;;22.90;82.60;;;;;;5011065;28;20022;-55
2021/07/16 12:04:40;;;;;;;10.07;3.22;;;22.90;88.30;;;;;;5012529;28;20022;-56
2021/07/16 12:07:06;;;;;;;9.25;2.78;;;;;;;;;;5012559;28;20037;-56
2021/07/16 12:09:35;;;;;;;8.52;2.63;;;23.00;87.00;;;;;;5012332;28;20048;-57
2021/07/16 12:12:09;;;;;;;11.93;3.05;;;23.10;82.10;;;;;;4993614;28;20022;-56
2021/07/16 12:14:53;;;;;;;9.60;3.13;;;23.20;81.90;;;;;;5012544;28;20452;-57
2021/07/16 12:17:30;;;;;;;9.38;3.10;;;23.10;81.20;;;;;;5012534;28;20025;-57
2021/07/16 12:19:58;;;;;;;7.80;3.20;;;23.10;87.50;;;;;;5015564;28;20080;-56
2021/07/16 12:22:28;;;;;;;7.32;3.10;;;23.20;87.50;;;;;;5016451;28;20129;-58
2021/07/16 12:24:54;;;;;;;7.00;3.05;;;;;;;;;;5016376;28;20033;-58
2021/07/16 12:27:21;;;;;;;7.30;3.10;;;23.40;86.40;;;;;;5016129;28;20038;-57
2021/07/16 12:30:06;;;;;;;10.48;3.55;;;23.50;79.90;;;;;;5014890;28;20273;-58
2021/07/16 12:32:37;;;;;;;9.02;3.33;;;23.40;80.30;;;;;;5014205;28;20147;-58
2021/07/16 12:35:21;;;;;;;9.68;3.33;;;23.40;78.80;;;;;;5015407;28;20044;-58
2021/07/16 12:37:50;;;;;;;10.02;3.03;;;23.50;83.30;;;;;;5016432;28;20481;-56
2021/07/16 12:40:19;;;;;;;6.57;3.05;;;23.70;82.40;;;;;;5016290;28;20053;-57
2021/07/16 12:42:57;;;;;;;10.88;3.70;;;23.40;75.80;;;;;;5014709;28;20049;-58
2021/07/16 12:45:54;;;;;;;8.25;3.67;;;23.40;81.80;;;;;;5014884;28;20033;-56
2021/07/16 12:48:30;;;;;;;11.50;3.45;;;23.50;81.70;;;;;;5016106;28;20037;-58
2021/07/16 12:51:17;;;;;;;6.53;3.08;;;23.30;81.90;;;;;;5015962;28;20054;-57
2021/07/16 12:53:55;;;;;;;8.80;3.47;;;23.60;76.00;;;;;;5015748;28;20426;-56
2021/07/16 12:56:34;;;;;;;10.50;3.28;;;23.50;82.10;;;;;;5015486;28;20026;-57
2021/07/16 12:59:00;;;;;;;6.00;3.15;;;;;;;;;;5015742;28;20022;-58
2021/07/16 13:01:32;;;;;;;10.77;3.20;;;23.50;83.00;;;;;;5015962;28;20052;-58
2021/07/16 13:04:14;;;;;;;7.93;3.00;;;23.60;83.10;;;;;;5015933;28;20018;-58
2021/07/16 13:06:40;;;;;;;9.60;3.20;;;;;;;;;;5015560;28;20544;-58
2021/07/16 13:09:32;;;;;;;6.63;3.15;;;23.60;76.80;;;;;;5015352;28;20116;-57
2021/07/16 13:11:58;;;;;;;8.93;3.13;;;;;;;;;;5015544;28;20111;-58
2021/07/16 13:14:39;;;;;;;7.55;2.97;;;23.70;82.10;;;;;;5015393;28;20022;-57
2021/07/16 13:17:31;;;;;;;12.57;4.00;;;23.60;76.20;;;;;;5015763;28;20033;-58
2021/07/16 13:20:12;;;;;;;10.20;3.63;;;23.70;75.60;;;;;;5015384;28;20030;-58
2021/07/16 13:22:40;;;;;;;9.35;3.33;;;23.70;81.40;;;;;;5015227;28;20033;-58
2021/07/16 13:25:08;;;;;;;9.13;3.03;;;23.70;82.30;;;;;;5015278;28;20026;-57
2021/07/16 13:27:34;;;;;;;9.77;3.70;;;;;;;;;;5015135;28;20137;-58
2021/07/16 13:30:00;;;;;;;9.45;3.58;;;;;;;;;;5014063;28;20474;-58
2021/07/16 13:32:26;;;;;;;8.95;3.15;;;;;;;;;;5015027;28;20033;-58
2021/07/16 13:34:52;;;;;;;12.07;3.78;;;;;;;;;;5014884;28;20021;-58
2021/07/16 13:37:19;;;;;;;12.75;3.20;;;;;;;;;;5014880;28;20080;-58
2021/07/16 13:39:45;;;;;;;11.23;3.63;;;;;;;;;;5014838;28;20041;-58
2021/07/16 13:42:11;;;;;;;10.50;3.80;;;;;;;;;;5014915;28;20033;-58
2021/07/16 13:44:37;;;;;;;8.27;3.40;;;;;;;;;;5014801;28;20030;-57
2021/07/16 13:47:03;;;;;;;6.03;3.03;;;;;;;;;;5014981;28;20080;-56
2021/07/16 13:49:29;;;;;;;8.55;2.90;;;;;;;;;;5013875;28;20072;-57
2021/07/16 13:51:56;;;;;;;8.10;3.28;;;;;;;;;;5014384;28;20072;-57
2021/07/16 13:54:27;;;;;;;9.13;4.05;;;;;;;;;;5013582;28;20026;-57
2021/07/16 13:56:54;;;;;;;9.05;3.10;;;;;;;;;;5013548;28;20032;-57
2021/07/16 13:59:20;;;;;;;10.32;3.60;;;;;;;;;;5013549;28;20021;-57
2021/07/16 14:01:47;;;;;;;10.23;3.60;;;;;;;;;;5014523;28;20026;-58
2021/07/16 14:04:13;;;;;;;7.38;3.00;;;;;;;;;;5014363;28;20049;-57
2021/07/16 14:06:38;;;;;;;12.13;3.72;;;;;;;;;;5014188;28;20144;-58
2021/07/16 14:09:05;;;;;;;9.80;3.60;;;;;;;;;;5013888;28;20065;-57
2021/07/16 14:11:31;;;;;;;10.52;3.70;;;;;;;;;;5014265;28;20061;-57
2021/07/16 14:13:57;;;;;;;8.52;3.47;;;;;;;;;;5014407;28;20026;-58
2021/07/16 14:16:23;;;;;;;8.80;3.45;;;;;;;;;;5014119;28;20105;-57
2021/07/16 14:18:49;;;;;;;10.35;3.55;;;;;;;;;;5013393;28;20026;-57